Time;durP1;ratioP1;P1;durP2;ratioP2;P2;SDS_P1;SDS_P2;PMS_P1;PMS_P2;Temp;Humidity;BMP_temperature;BMP_pressure;BME280_temperature;BME280_humidity;BME280_pressure;Samples;Min_cycle;Max_cycle;Signal;HPM_P1;HPM_P2
2021/07/08 00:01:21;;;;;;;6.45;4.30;;;;;;;27.15;45.43;100019.84;4404202;32;34363;-87
2021/07/08 00:03:49;;;;;;;5.87;4.35;;;;;;;27.23;45.38;100030.69;4406515;32;34372;-86
2021/07/08 00:06:16;;;;;;;5.35;4.32;;;;;;;27.04;45.90;100031.81;4405068;32;34254;-86
2021/07/08 00:08:44;;;;;;;4.20;3.90;;;;;;;26.89;46.39;100036.22;4391787;32;34617;-87
2021/07/08 00:11:12;;;;;;;6.60;4.47;;;;;;;27.04;45.55;100037.25;4404298;32;34612;-87
2021/07/08 00:13:40;;;;;;;5.75;4.80;;;;;;;26.93;45.76;100040.28;4393550;32;33765;-87
2021/07/08 00:16:08;;;;;;;4.90;4.50;;;;;;;26.70;47.10;100043.63;4397706;32;33505;-87
2021/07/08 00:18:35;;;;;;;5.40;4.22;;;;;;;26.99;46.00;100039.59;4410474;32;31441;-87
2021/07/08 00:21:03;;;;;;;5.43;4.45;;;;;;;26.67;47.16;100041.22;4407323;32;34120;-85
2021/07/08 00:23:31;;;;;;;7.62;4.62;;;;;;;26.75;46.74;100038.53;4404849;32;33997;-85
2021/07/08 00:25:59;;;;;;;5.07;4.62;;;;;;;26.80;45.88;100038.06;4405431;32;32637;-85
2021/07/08 00:28:27;;;;;;;6.40;4.82;;;;;;;26.57;47.11;100043.22;4403155;32;33779;-85
2021/07/08 00:30:54;;;;;;;4.95;4.45;;;;;;;26.47;46.96;100042.53;4406617;32;33363;-85
2021/07/08 00:33:22;;;;;;;5.03;4.37;;;;;;;26.73;46.09;100032.47;4404594;32;34761;-86
2021/07/08 00:35:50;;;;;;;5.57;4.25;;;;;;;26.48;47.14;100045.06;4406509;32;32769;-87
2021/07/08 00:38:18;;;;;;;5.45;4.47;;;;;;;26.51;47.16;100038.47;4391614;32;32912;-87
2021/07/08 00:40:46;;;;;;;4.93;4.43;;;;;;;26.70;46.64;100040.06;4401509;32;33793;-86
2021/07/08 00:43:14;;;;;;;8.82;4.65;;;;;;;26.67;46.96;100038.50;4387554;32;33361;-87
2021/07/08 00:45:42;;;;;;;5.22;4.82;;;;;;;26.68;46.42;100044.78;4405073;32;32917;-87
2021/07/08 00:48:11;;;;;;;6.05;4.40;;;;;;;26.61;46.91;100044.59;4405328;32;33974;-86
2021/07/08 00:50:46;;;;;;;5.00;4.50;;;;;;;26.43;47.45;100044.69;4406750;32;32910;-87
2021/07/08 00:53:16;;;;;;;7.35;4.82;;;;;;;26.55;46.89;100042.56;4403937;32;33181;-87
2021/07/08 00:55:55;;;;;;;7.40;4.40;;;;;;;26.45;47.19;100041.84;4405594;32;32499;-86
2021/07/08 00:58:24;;;;;;;5.65;4.07;;;;;;;26.43;47.31;100038.44;4407391;32;32766;-86
2021/07/08 01:00:52;;;;;;;13.48;4.60;;;;;;;26.38;46.99;100035.34;4405829;32;33997;-86
2021/07/08 01:03:22;;;;;;;5.12;4.53;;;;;;;26.09;48.38;100041.97;4404084;32;33309;-86
2021/07/08 01:05:53;;;;;;;8.60;4.70;;;;;;;26.17;47.96;100041.19;4410074;32;32633;-84
2021/07/08 01:08:22;;;;;;;5.10;4.55;;;;;;;26.35;47.64;100049.19;4412572;32;33721;-85
2021/07/08 01:10:51;;;;;;;5.10;4.45;;;;;;;26.36;47.39;100045.50;4405553;32;33982;-85
2021/07/08 01:13:20;;;;;;;6.37;4.85;;;;;;;26.46;46.91;100038.13;4405079;32;34551;-84
2021/07/08 01:15:48;;;;;;;7.25;5.15;;;;;;;26.16;47.77;100048.44;4404694;32;33756;-85
2021/07/08 01:18:16;;;;;;;6.47;4.75;;;;;;;26.15;47.57;100045.88;4404413;32;33934;-85
2021/07/08 01:20:44;;;;;;;11.30;5.28;;;;;;;26.18;47.80;100043.72;4401595;32;33973;-85
2021/07/08 01:23:12;;;;;;;5.93;4.82;;;;;;;26.18;47.93;100049.12;4404720;32;33320;-85
2021/07/08 01:25:42;;;;;;;5.47;5.05;;;;;;;26.18;47.68;100049.12;4404415;32;33114;-85
2021/07/08 01:28:11;;;;;;;4.50;4.12;;;;;;;26.02;48.31;100049.06;4393041;32;34159;-89
2021/07/08 01:30:39;;;;;;;5.37;4.87;;;;;;;25.97;48.78;100054.94;4404434;32;35982;-87
2021/07/08 01:33:07;;;;;;;6.75;4.78;;;;;;;25.89;48.80;100048.62;4388688;32;33762;-87
2021/07/08 01:35:36;;;;;;;4.95;4.45;;;;;;;26.15;48.22;100059.41;4403975;32;33920;-86
2021/07/08 01:38:03;;;;;;;5.70;4.28;;;;;;;25.92;48.39;100057.28;4393340;32;34294;-86
2021/07/08 01:40:31;;;;;;;5.55;4.87;;;;;;;26.06;48.21;100053.09;4403909;32;33897;-86
2021/07/08 01:42:59;;;;;;;5.28;4.75;;;;;;;26.20;48.24;100059.78;4403305;32;33879;-86
2021/07/08 01:45:28;;;;;;;6.20;4.95;;;;;;;26.11;48.46;100050.81;4387889;32;32319;-86
2021/07/08 01:47:55;;;;;;;8.82;4.47;;;;;;;26.09;48.85;100046.53;4414894;32;33474;-84
2021/07/08 01:50:23;;;;;;;7.68;4.78;;;;;;;26.12;48.77;100055.19;4405433;32;34000;-85
2021/07/08 01:52:51;;;;;;;7.35;4.90;;;;;;;25.97;49.29;100054.06;4402795;32;34691;-85
2021/07/08 01:55:20;;;;;;;6.75;4.32;;;;;;;26.19;48.48;100048.13;4403946;32;32871;-84
2021/07/08 01:57:52;;;;;;;9.65;5.25;;;;;;;25.76;49.70;100047.19;4403756;32;33927;-85
2021/07/08 02:00:22;;;;;;;8.68;5.03;;;;;;;26.17;48.76;100044.72;4399479;32;33427;-84
2021/07/08 02:02:51;;;;;;;5.45;4.95;;;;;;;25.45;51.25;100044.06;4410990;32;33916;-84
2021/07/08 02:05:21;;;;;;;5.68;5.18;;;;;;;25.78;49.93;100045.19;4406305;32;32716;-84
2021/07/08 02:07:49;;;;;;;7.87;5.30;;;;;;;25.59;50.42;100042.66;4404269;32;34883;-85
2021/07/08 02:10:19;;;;;;;4.78;4.28;;;;;;;25.38;50.56;100042.12;4392506;32;33468;-84
2021/07/08 02:12:48;;;;;;;7.68;5.62;;;;;;;25.91;49.03;100038.47;4403301;32;34461;-84
2021/07/08 02:15:16;;;;;;;6.03;5.32;;;;;;;25.12;51.06;100042.09;4395790;32;32725;-85
2021/07/08 02:17:44;;;;;;;8.80;5.37;;;;;;;25.41;50.32;100036.44;4390961;32;34371;-85
2021/07/08 02:20:15;;;;;;;7.25;5.18;;;;;;;25.27;51.03;100040.53;4385261;32;33109;-84
2021/07/08 02:22:43;;;;;;;10.15;5.03;;;;;;;25.11;50.98;100046.63;4389922;32;33224;-85
2021/07/08 02:25:13;;;;;;;10.90;5.40;;;;;;;25.20;50.72;100040.28;4401430;32;33307;-84
2021/07/08 02:27:42;;;;;;;7.35;5.00;;;;;;;25.21;50.55;100046.53;4403643;32;33894;-85
2021/07/08 02:30:15;;;;;;;6.35;5.53;;;;;;;24.95;51.67;100052.69;4394787;32;34082;-85
2021/07/08 02:32:44;;;;;;;5.43;4.93;;;;;;;25.37;49.43;100048.56;4399404;32;34025;-86
2021/07/08 02:35:13;;;;;;;7.85;4.90;;;;;;;25.42;50.11;100051.63;4403507;32;33411;-87
2021/07/08 02:37:41;;;;;;;8.70;4.70;;;;;;;25.33;49.75;100050.72;4402587;32;33095;-87
2021/07/08 02:40:15;;;;;;;6.50;5.50;;;;;;;25.58;49.82;100054.44;4402465;32;34407;-88
2021/07/08 02:42:53;;;;;;;6.50;5.03;;;;;;;25.22;50.93;100059.06;4398213;32;33083;-88
2021/07/08 02:45:29;;;;;;;6.65;4.82;;;;;;;25.45;50.01;100056.75;4404452;32;34651;-88
2021/07/08 02:47:59;;;;;;;8.75;5.68;;;;;;;25.51;50.05;100058.81;4406790;32;32890;-88
2021/07/08 02:50:28;;;;;;;6.80;5.15;;;;;;;25.36;50.65;100065.78;4399919;32;34939;-88
2021/07/08 02:52:56;;;;;;;6.32;5.40;;;;;;;25.53;50.20;100067.59;4405407;32;33893;-88
2021/07/08 02:55:24;;;;;;;6.32;5.72;;;;;;;25.65;49.69;100060.94;4402640;32;33799;-87
2021/07/08 02:57:53;;;;;;;7.30;5.03;;;;;;;25.42;50.31;100065.16;4409771;32;33909;-86
2021/07/08 03:00:22;;;;;;;6.12;5.07;;;;;;;25.49;50.17;100072.50;4400695;32;34010;-86
2021/07/08 03:02:51;;;;;;;8.60;5.80;;;;;;;25.53;50.04;100073.00;4393784;32;32925;-86
2021/07/08 03:05:20;;;;;;;8.88;5.53;;;;;;;25.47;50.55;100073.63;4397890;32;34300;-86
2021/07/08 03:07:47;;;;;;;7.43;5.85;;;;;;;25.41;51.12;100076.97;4403426;32;32921;-86
2021/07/08 03:10:17;;;;;;;8.05;5.70;;;;;;;25.45;50.72;100070.25;4408791;32;34165;-86
2021/07/08 03:12:46;;;;;;;9.18;5.22;;;;;;;25.49;50.66;100077.91;4416453;32;34281;-86
2021/07/08 03:15:15;;;;;;;7.82;5.55;;;;;;;25.34;50.98;100075.88;4407180;32;32539;-86
2021/07/08 03:17:43;;;;;;;7.00;5.43;;;;;;;25.44;50.57;100074.78;4395894;32;33209;-86
2021/07/08 03:20:19;;;;;;;5.95;5.25;;;;;;;25.59;50.28;100072.41;4404955;32;34456;-87
2021/07/08 03:22:47;;;;;;;5.93;4.80;;;;;;;25.41;51.03;100063.47;4404794;32;33117;-86
2021/07/08 03:25:18;;;;;;;6.95;5.75;;;;;;;25.47;50.45;100060.13;4407266;32;33417;-87
2021/07/08 03:27:46;;;;;;;6.40;5.68;;;;;;;25.56;50.10;100067.28;4406719;32;33867;-87
2021/07/08 03:30:18;;;;;;;11.23;6.87;;;;;;;25.51;50.67;100065.06;4405937;32;33650;-87
2021/07/08 03:32:48;;;;;;;12.13;5.72;;;;;;;25.14;51.55;100067.94;4403771;32;34619;-88
2021/07/08 03:35:23;;;;;;;7.05;5.20;;;;;;;25.29;50.89;100058.28;4393651;32;33612;-87
2021/07/08 03:37:51;;;;;;;7.28;6.12;;;;;;;25.24;51.20;100068.69;4392415;32;34274;-87
2021/07/08 03:40:20;;;;;;;11.80;6.15;;;;;;;25.28;50.42;100064.69;4407694;32;32998;-87
2021/07/08 03:42:51;;;;;;;6.15;5.55;;;;;;;25.26;51.06;100058.59;4402866;32;33993;-87
2021/07/08 03:45:22;;;;;;;9.05;5.22;;;;;;;25.42;50.14;100065.16;4412711;32;33106;-88
2021/07/08 03:47:50;;;;;;;9.35;5.25;;;;;;;25.69;49.07;100066.91;4405946;32;33962;-87
2021/07/08 03:50:17;;;;;;;8.25;4.97;;;;;;;25.83;49.51;100068.19;4404924;32;33899;-88
2021/07/08 03:52:46;;;;;;;8.10;4.90;;;;;;;26.01;48.34;100066.28;4401680;32;33711;-87
2021/07/08 03:55:16;;;;;;;7.72;5.75;;;;;;;26.09;48.71;100073.59;4405136;32;33934;-88
2021/07/08 03:57:53;;;;;;;7.15;5.90;;;;;;;25.94;50.25;100071.50;4406589;32;33667;-88
2021/07/08 04:00:23;;;;;;;7.07;5.37;;;;;;;26.25;48.61;100074.56;4398266;32;34025;-87
2021/07/08 04:02:52;;;;;;;8.25;5.43;;;;;;;26.28;49.31;100078.78;4403854;32;33095;-88
2021/07/08 04:05:20;;;;;;;7.22;4.78;;;;;;;26.16;49.31;100078.22;4384334;32;32841;-88
2021/07/08 04:07:48;;;;;;;8.75;4.82;;;;;;;26.38;48.93;100084.06;4404754;32;34358;-89
2021/07/08 04:10:16;;;;;;;9.73;5.35;;;;;;;26.50;47.77;100082.81;4396887;32;34782;-88
2021/07/08 04:12:45;;;;;;;11.52;5.70;;;;;;;26.60;48.62;100088.94;4383777;32;34500;-88
2021/07/08 04:15:13;;;;;;;10.50;5.12;;;;;;;26.86;47.49;100080.72;4400906;32;34703;-88
2021/07/08 04:17:41;;;;;;;6.68;5.97;;;;;;;27.04;46.28;100081.44;4384066;32;33040;-89
2021/07/08 04:20:11;;;;;;;13.27;5.12;;;;;;;26.98;47.01;100075.84;4404061;32;34917;-88
2021/07/08 04:22:39;;;;;;;11.90;5.53;;;;;;;27.15;45.93;100080.31;4404979;32;33705;-88
2021/07/08 04:25:08;;;;;;;7.45;5.47;;;;;;;27.40;45.33;100075.78;4397534;32;32562;-87
2021/07/08 04:27:36;;;;;;;9.68;5.40;;;;;;;27.59;45.02;100074.59;4400295;32;32930;-89
2021/07/08 04:30:06;;;;;;;8.90;5.18;;;;;;;27.71;44.82;100075.97;4405521;32;31427;-89
2021/07/08 04:32:34;;;;;;;9.68;5.35;;;;;;;27.84;44.52;100077.31;4391444;32;33192;-89
2021/07/08 04:35:02;;;;;;;6.60;5.82;;;;;;;27.89;44.35;100080.34;4414783;32;33772;-89
2021/07/08 04:37:30;;;;;;;7.12;5.75;;;;;;;28.29;43.64;100082.97;4396404;32;34017;-88
2021/07/08 04:39:58;;;;;;;7.45;5.55;;;;;;;28.49;42.84;100088.03;4385126;32;34353;-88
2021/07/08 04:42:26;;;;;;;9.02;5.50;;;;;;;28.30;43.43;100084.69;4397070;32;34666;-88
2021/07/08 04:44:56;;;;;;;8.20;5.28;;;;;;;28.36;43.44;100093.19;4408722;32;33731;-88
2021/07/08 04:47:24;;;;;;;7.35;5.25;;;;;;;28.38;43.21;100097.41;4395376;32;33280;-89
2021/07/08 04:49:52;;;;;;;6.28;4.90;;;;;;;28.36;43.18;100098.59;4394709;32;34519;-88
2021/07/08 04:52:19;;;;;;;8.25;5.70;;;;;;;28.77;42.36;100096.53;4404773;32;33232;-88
2021/07/08 04:54:47;;;;;;;5.57;5.05;;;;;;;28.82;42.45;100092.28;4417577;32;33755;-88
2021/07/08 04:57:17;;;;;;;9.65;4.72;;;;;;;28.79;41.98;100092.66;4393178;32;33378;-88
2021/07/08 04:59:44;;;;;;;7.07;5.30;;;;;;;28.88;41.85;100089.88;4397251;32;34811;-88
2021/07/08 05:02:12;;;;;;;10.55;5.57;;;;;;;29.20;42.40;100091.56;4379369;32;32764;-88
2021/07/08 05:04:40;;;;;;;7.93;5.70;;;;;;;29.12;41.47;100089.78;4371005;32;32599;-88
2021/07/08 05:07:08;;;;;;;7.97;4.90;;;;;;;28.63;42.24;100091.84;4405731;32;33283;-88
2021/07/08 05:09:36;;;;;;;10.63;5.03;;;;;;;29.09;41.14;100090.97;4405608;32;33426;-89
2021/07/08 05:12:04;;;;;;;6.43;5.72;;;;;;;29.06;41.15;100090.50;4401372;32;32992;-90
2021/07/08 05:14:34;;;;;;;9.20;5.22;;;;;;;29.31;40.26;100094.72;4407741;32;33028;-89
2021/07/08 05:17:03;;;;;;;9.80;5.72;;;;;;;29.41;41.21;100089.03;4402549;32;33582;-89
2021/07/08 05:19:31;;;;;;;11.02;4.87;;;;;;;29.33;40.77;100095.38;4380879;32;33521;-89
2021/07/08 05:22:02;;;;;;;8.75;5.47;;;;;;;29.14;41.52;100098.59;4399779;32;32752;-89
2021/07/08 05:24:30;;;;;;;8.95;6.22;;;;;;;29.46;41.11;100097.50;4412648;32;34019;-90
2021/07/08 05:26:57;;;;;;;13.95;5.82;;;;;;;29.42;40.61;100100.78;4405151;32;34812;-89
2021/07/08 05:29:26;;;;;;;12.18;5.22;;;;;;;29.61;40.77;100100.31;4383097;32;33965;-89
2021/07/08 05:31:54;;;;;;;10.68;5.97;;;;;;;29.57;40.76;100097.09;4399815;32;33063;-90
2021/07/08 05:34:21;;;;;;;7.68;5.45;;;;;;;29.65;40.38;100101.63;4404025;32;33504;-89
2021/07/08 05:36:52;;;;;;;7.78;4.95;;;;;;;29.76;40.00;100087.56;4410572;32;34267;-88
2021/07/08 05:39:20;;;;;;;12.37;5.87;;;;;;;29.67;41.23;100094.13;4402730;32;33691;-88
2021/07/08 05:41:47;;;;;;;8.68;5.97;;;;;;;29.77;40.03;100099.34;4414658;32;34483;-86
2021/07/08 05:44:15;;;;;;;11.07;5.95;;;;;;;29.82;40.08;100103.19;4391245;32;32795;-86
2021/07/08 05:46:43;;;;;;;9.85;5.35;;;;;;;29.97;39.57;100099.66;4366418;32;33151;-86
2021/07/08 05:49:11;;;;;;;13.52;5.68;;;;;;;30.31;39.61;100107.31;4382404;32;33130;-86
2021/07/08 05:51:38;;;;;;;10.70;5.87;;;;;;;30.53;38.79;100105.53;4398398;32;34776;-88
2021/07/08 05:54:06;;;;;;;5.82;4.78;;;;;;;30.35;39.30;100106.75;4383662;32;32898;-88
2021/07/08 05:56:34;;;;;;;6.45;5.32;;;;;;;30.29;39.99;100115.69;4399018;32;33983;-89
2021/07/08 05:59:01;;;;;;;10.65;5.15;;;;;;;30.34;39.22;100104.22;4398016;32;34735;-88
2021/07/08 06:01:29;;;;;;;12.52;6.97;;;;;;;30.60;38.60;100111.91;4393714;32;34327;-87
2021/07/08 06:03:57;;;;;;;8.35;5.78;;;;;;;30.43;39.31;100104.97;4402120;32;31747;-86
2021/07/08 06:06:25;;;;;;;8.43;5.50;;;;;;;30.84;38.14;100106.16;4382807;32;34585;-86
2021/07/08 06:08:53;;;;;;;8.02;5.28;;;;;;;30.92;37.92;100105.22;4391929;32;33574;-87
2021/07/08 06:11:38;;;;;;;10.77;5.47;;;;;;;31.05;37.21;100110.84;4397172;32;32659;-87
2021/07/08 06:14:05;;;;;;;8.32;5.87;;;;;;;31.10;38.98;100108.37;4402070;32;33782;-87
2021/07/08 06:16:33;;;;;;;6.93;5.32;;;;;;;31.30;36.68;100102.31;4393577;32;31454;-85
2021/07/08 06:19:01;;;;;;;9.32;4.90;;;;;;;31.09;37.19;100103.94;4395293;32;33129;-86
2021/07/08 06:21:29;;;;;;;9.60;5.00;;;;;;;31.09;37.44;100105.81;4395812;32;32945;-86
2021/07/08 06:23:57;;;;;;;9.35;5.70;;;;;;;31.03;37.10;100106.59;4407023;32;33397;-85
2021/07/08 06:26:24;;;;;;;6.97;5.07;;;;;;;31.64;37.59;100107.06;4394669;32;33521;-86
2021/07/08 06:28:52;;;;;;;9.50;5.47;;;;;;;31.23;37.19;100107.66;4406469;32;33105;-86
2021/07/08 06:31:19;;;;;;;11.40;5.15;;;;;;;31.64;37.41;100104.31;4398444;32;31587;-86
2021/07/08 06:33:47;;;;;;;7.55;4.90;;;;;;;31.74;36.57;100099.34;4403020;32;34039;-85
2021/07/08 06:36:16;;;;;;;8.27;5.05;;;;;;;31.68;36.57;100100.16;4397728;32;32758;-86
2021/07/08 06:38:44;;;;;;;8.68;5.15;;;;;;;31.83;35.90;100109.13;4404364;32;36445;-86
2021/07/08 06:41:11;;;;;;;8.13;5.05;;;;;;;31.96;35.27;100102.09;4389650;32;34105;-85
2021/07/08 06:43:39;;;;;;;13.40;5.45;;;;;;;31.84;36.49;100105.34;4400466;32;33638;-86
2021/07/08 06:46:09;;;;;;;14.50;6.22;;;;;;;31.77;36.34;100106.31;4393180;32;34839;-85
2021/07/08 06:48:41;;;;;;;6.97;5.03;;;;;;;32.20;35.41;100104.38;4397783;32;34006;-85
2021/07/08 06:51:10;;;;;;;6.87;4.82;;;;;;;32.00;35.86;100108.81;4404653;32;33771;-86
2021/07/08 06:53:38;;;;;;;7.18;5.18;;;;;;;32.32;35.59;100108.22;4396250;32;33644;-86
2021/07/08 06:56:06;;;;;;;7.37;5.05;;;;;;;32.51;34.84;100108.56;4386687;32;32707;-85
2021/07/08 06:58:34;;;;;;;11.00;5.50;;;;;;;32.48;34.80;100106.25;4405635;32;33723;-86
2021/07/08 07:01:02;;;;;;;8.80;4.90;;;;;;;32.47;35.44;100110.00;4404146;32;34003;-85
2021/07/08 07:03:34;;;;;;;7.47;4.75;;;;;;;32.87;34.04;100111.87;4401171;32;34000;-85
2021/07/08 07:06:03;;;;;;;8.45;5.95;;;;;;;32.82;33.54;100119.88;4397625;32;35010;-85
2021/07/08 07:08:38;;;;;;;8.15;5.57;;;;;;;32.81;34.10;100112.72;4387434;32;31473;-84
2021/07/08 07:11:06;;;;;;;5.95;4.97;;;;;;;32.83;33.69;100110.59;4400803;32;34228;-84
2021/07/08 07:13:34;;;;;;;7.75;4.32;;;;;;;33.20;34.17;100116.66;4403212;32;34060;-86
2021/07/08 07:16:01;;;;;;;11.10;4.80;;;;;;;33.05;31.41;100124.19;4394378;32;34062;-86
2021/07/08 07:18:37;;;;;;;7.97;4.97;;;;;;;33.03;32.88;100116.19;4398025;32;35506;-87
2021/07/08 07:21:08;;;;;;;6.05;4.87;;;;;;;33.37;32.15;100112.47;4400579;32;33351;-86
2021/07/08 07:23:37;;;;;;;8.02;4.30;;;;;;;33.68;31.90;100124.75;4400012;32;32862;-86
2021/07/08 07:26:04;;;;;;;7.70;4.95;;;;;;;33.86;30.60;100127.72;4395298;32;32768;-86
2021/07/08 07:28:32;;;;;;;7.18;4.97;;;;;;;33.82;31.07;100125.63;4400227;32;32518;-87
2021/07/08 07:31:00;;;;;;;9.32;5.03;;;;;;;34.41;30.17;100124.72;4402633;32;34191;-86
2021/07/08 07:33:27;;;;;;;7.20;4.30;;;;;;;34.24;31.75;100113.38;4397314;32;32597;-86
2021/07/08 07:35:56;;;;;;;11.05;5.28;;;;;;;34.81;30.31;100119.16;4398527;32;33605;-86
2021/07/08 07:38:24;;;;;;;7.15;5.20;;;;;;;34.66;29.57;100105.72;4398849;32;34161;-84
2021/07/08 07:40:52;;;;;;;6.68;4.93;;;;;;;34.53;29.25;100108.50;4395505;32;33372;-84
2021/07/08 07:43:20;;;;;;;9.50;5.07;;;;;;;34.59;29.28;100110.38;4411735;32;34116;-84
2021/07/08 07:45:49;;;;;;;6.82;4.90;;;;;;;34.96;28.67;100116.16;4400201;32;34895;-84
2021/07/08 07:48:17;;;;;;;6.28;4.95;;;;;;;35.01;29.22;100108.94;4387922;32;33008;-84
2021/07/08 07:50:45;;;;;;;7.37;4.40;;;;;;;34.92;29.92;100110.22;4391847;32;33295;-84
2021/07/08 07:53:13;;;;;;;12.50;5.50;;;;;;;34.82;30.32;100102.47;4401233;32;32436;-82
2021/07/08 07:55:41;;;;;;;8.57;5.40;;;;;;;34.92;28.23;100101.16;4394728;32;34373;-82
2021/07/08 07:58:09;;;;;;;6.43;4.65;;;;;;;35.01;27.89;100102.63;4389767;32;34705;-83
2021/07/08 08:00:37;;;;;;;10.10;5.62;;;;;;;35.31;28.66;100098.19;4400333;32;33471;-82
2021/07/08 08:03:05;;;;;;;9.80;5.35;;;;;;;35.33;28.84;100101.59;4404237;32;32298;-82
2021/07/08 08:05:34;;;;;;;6.75;4.95;;;;;;;35.39;27.12;100097.94;4413905;32;33976;-82
2021/07/08 08:10:50;;;;;;;7.50;5.53;;;;;;;35.52;27.48;100101.72;4383063;32;34091;-83
2021/07/08 08:13:18;;;;;;;6.62;4.90;;;;;;;35.26;29.34;100100.78;4400491;32;33051;-83
2021/07/08 08:15:46;;;;;;;8.95;5.60;;;;;;;35.45;28.27;100098.97;4393139;32;34141;-82
2021/07/08 08:18:15;;;;;;;9.88;5.57;;;;;;;35.86;27.56;100097.63;4393542;32;34574;-83
2021/07/08 08:20:43;;;;;;;9.73;6.25;;;;;;;35.92;27.48;100094.78;4385185;32;34280;-82
2021/07/08 08:23:12;;;;;;;11.18;5.28;;;;;;;35.75;26.45;100096.44;4398563;32;33350;-82
2021/07/08 08:25:40;;;;;;;10.18;6.10;;;;;;;35.78;27.55;100098.72;4395007;32;33748;-83
2021/07/08 08:28:08;;;;;;;11.20;5.82;;;;;;;35.69;27.34;100099.22;4395226;32;32936;-83
2021/07/08 08:30:36;;;;;;;7.95;5.28;;;;;;;35.82;27.05;100104.63;4398630;32;33853;-85
2021/07/08 08:33:04;;;;;;;12.48;5.65;;;;;;;36.15;27.75;100093.34;4383440;32;35119;-85
2021/07/08 08:35:32;;;;;;;13.35;5.62;;;;;;;36.28;26.74;100095.13;4413289;32;33448;-85
2021/07/08 08:38:00;;;;;;;6.62;5.53;;;;;;;35.95;27.11;100099.03;4406284;32;35043;-85
2021/07/08 08:40:28;;;;;;;8.70;5.53;;;;;;;36.03;26.11;100101.47;4403692;32;34600;-85
2021/07/08 08:42:56;;;;;;;7.72;5.90;;;;;;;36.61;26.25;100098.37;4380940;32;32446;-85
2021/07/08 08:45:24;;;;;;;7.35;5.68;;;;;;;36.59;26.04;100105.16;4389669;32;34265;-85
2021/07/08 08:47:56;;;;;;;6.15;5.50;;;;;;;36.27;26.58;100099.75;4402378;32;33005;-85
2021/07/08 08:50:25;;;;;;;10.05;5.62;;;;;;;36.40;26.24;100098.78;4399166;32;32824;-85
2021/07/08 08:52:53;;;;;;;17.52;6.00;;;;;;;36.28;26.19;100097.87;4398918;32;34246;-85
2021/07/08 08:55:22;;;;;;;14.05;6.60;;;;;;;36.46;26.60;100099.81;4405312;32;33183;-86
2021/07/08 08:57:49;;;;;;;8.23;6.62;;;;;;;36.91;25.81;100108.59;4405662;32;33799;-85
2021/07/08 09:00:24;;;;;;;8.40;5.50;;;;;;;36.85;25.78;100104.00;4401112;32;33639;-85
2021/07/08 09:02:58;;;;;;;10.65;5.85;;;;;;;37.09;26.53;100110.47;4396977;32;33726;-85
2021/07/08 09:05:27;;;;;;;10.85;6.45;;;;;;;37.13;27.13;100103.44;4398645;32;32905;-85
2021/07/08 09:08:14;;;;;;;12.45;6.82;;;;;;;37.49;24.88;100109.91;4413326;32;33428;-85
2021/07/08 09:10:44;;;;;;;9.55;6.57;;;;;;;37.51;25.47;100099.47;4410744;32;34035;-85
2021/07/08 09:13:12;;;;;;;15.85;6.25;;;;;;;37.44;25.33;100096.00;4406072;32;32297;-85
2021/07/08 09:15:40;;;;;;;13.77;8.13;;;;;;;37.79;24.77;100104.31;4409499;32;33861;-85
2021/07/08 09:18:12;;;;;;;7.68;5.90;;;;;;;37.70;24.93;100095.59;4406735;32;35163;-85
2021/07/08 09:20:41;;;;;;;10.50;6.10;;;;;;;37.61;24.45;100100.59;4407188;32;34057;-84
2021/07/08 09:23:12;;;;;;;11.77;7.20;;;;;;;37.87;25.59;100101.25;4405954;32;33606;-85
2021/07/08 09:25:41;;;;;;;10.45;5.87;;;;;;;37.98;24.31;100097.66;4413201;32;33209;-85
2021/07/08 09:28:15;;;;;;;10.60;6.65;;;;;;;37.71;24.21;100099.19;4411960;32;34082;-84
2021/07/08 09:30:44;;;;;;;13.60;7.00;;;;;;;37.58;24.20;100103.81;4410275;32;33916;-84
2021/07/08 09:33:32;;;;;;;9.73;6.20;;;;;;;37.49;24.28;100087.87;4411714;32;32990;-85
2021/07/08 09:36:11;;;;;;;7.22;6.53;;;;;;;38.34;23.87;100091.06;4385205;32;33645;-84
2021/07/08 09:38:47;;;;;;;8.52;6.40;;;;;;;38.25;22.81;100089.72;4407147;32;34104;-85
2021/07/08 09:41:16;;;;;;;7.85;6.40;;;;;;;37.78;23.11;100095.22;4407138;32;33839;-84
2021/07/08 09:43:45;;;;;;;11.93;6.68;;;;;;;37.98;23.17;100092.13;4395484;32;96316;-84
2021/07/08 09:46:14;;;;;;;16.87;6.70;;;;;;;38.22;24.34;100086.59;4401347;32;34625;-84
2021/07/08 09:49:05;;;;;;;12.32;5.95;;;;;;;38.11;24.47;100080.03;4392572;32;33500;-85
2021/07/08 09:51:34;;;;;;;11.20;6.22;;;;;;;38.55;23.29;100078.56;4410658;32;33516;-84
2021/07/08 09:54:15;;;;;;;7.72;7.00;;;;;;;38.78;23.35;100074.91;4387685;32;33503;-84
2021/07/08 09:56:46;;;;;;;11.05;7.50;;;;;;;38.10;22.92;100070.09;4411849;32;32910;-84
2021/07/08 09:59:15;;;;;;;10.65;6.62;;;;;;;38.50;21.74;100070.16;4402346;32;33182;-85
2021/07/08 10:01:44;;;;;;;12.80;6.35;;;;;;;39.17;21.95;100072.34;4404648;32;34241;-84
2021/07/08 10:04:12;;;;;;;19.27;7.10;;;;;;;38.88;23.13;100072.34;4416576;32;32852;-85
2021/07/08 10:06:40;;;;;;;7.35;6.45;;;;;;;38.64;22.61;100068.78;4400897;32;33650;-85
2021/07/08 10:09:08;;;;;;;9.45;6.15;;;;;;;38.64;22.67;100073.47;4399995;32;33939;-84
2021/07/08 10:11:37;;;;;;;10.60;6.80;;;;;;;38.72;21.70;100064.81;4407174;32;33513;-84
2021/07/08 10:14:05;;;;;;;11.57;6.40;;;;;;;38.24;22.20;100071.50;4392653;32;34174;-85
2021/07/08 10:16:33;;;;;;;10.05;5.93;;;;;;;38.57;23.19;100079.16;4397234;32;32836;-84
2021/07/08 10:19:03;;;;;;;6.93;5.85;;;;;;;38.50;22.12;100074.84;4404533;32;34017;-84
2021/07/08 10:21:31;;;;;;;10.15;5.87;;;;;;;38.62;22.53;100076.50;4417603;32;34143;-84
2021/07/08 10:24:00;;;;;;;15.38;6.37;;;;;;;39.09;22.18;100081.03;4402014;32;32835;-85
2021/07/08 10:26:28;;;;;;;9.98;6.15;;;;;;;38.91;22.14;100080.16;4393024;32;34017;-84
2021/07/08 10:28:56;;;;;;;6.50;5.90;;;;;;;38.91;22.69;100074.63;4391838;32;34725;-85
2021/07/08 10:31:25;;;;;;;9.23;5.85;;;;;;;39.16;22.06;100070.66;4392961;32;33175;-85
2021/07/08 10:34:07;;;;;;;9.18;6.18;;;;;;;39.18;21.51;100068.50;4404248;32;33485;-85
2021/07/08 10:36:35;;;;;;;8.95;5.97;;;;;;;38.90;22.07;100061.91;4396893;32;33757;-85
2021/07/08 10:39:25;;;;;;;8.25;5.82;;;;;;;38.80;21.23;100064.47;4401507;32;33529;-85
2021/07/08 10:41:57;;;;;;;6.87;6.28;;;;;;;39.39;21.96;100058.66;4413746;32;34394;-85
2021/07/08 10:44:41;;;;;;;9.45;6.28;;;;;;;39.40;22.04;100060.34;4400755;32;33614;-85
2021/07/08 10:47:32;;;;;;;6.45;5.80;;;;;;;39.26;20.42;100054.28;4403299;32;33004;-85
2021/07/08 10:50:00;;;;;;;10.57;6.62;;;;;;;39.14;20.87;100056.28;4381815;32;33446;-84
2021/07/08 10:52:43;;;;;;;12.85;6.82;;;;;;;38.55;22.79;100064.78;4402311;32;33092;-84
2021/07/08 10:55:12;;;;;;;9.23;5.80;;;;;;;38.87;21.95;100045.84;4389691;32;33163;-84
2021/07/08 10:57:40;;;;;;;10.30;5.60;;;;;;;39.31;21.24;100056.31;4391044;32;34095;-85
2021/07/08 11:00:10;;;;;;;6.57;5.62;;;;;;;39.36;21.47;100054.50;4406543;32;33987;-85
2021/07/08 11:02:46;;;;;;;8.20;5.40;;;;;;;39.23;22.76;100040.19;4398579;32;33141;-84
2021/07/08 11:05:52;;;;;;;8.35;5.72;;;;;;;39.42;22.50;100042.44;4393394;32;33814;-84
2021/07/08 11:09:03;;;;;;;12.82;5.75;;;;;;;38.98;22.19;100046.00;4402125;32;32934;-84
2021/07/08 11:11:34;;;;;;;12.95;5.75;;;;;;;39.47;22.11;100038.94;4407286;32;33307;-85
2021/07/08 11:14:08;;;;;;;8.45;5.90;;;;;;;39.79;21.27;100028.13;4413153;32;33191;-85
2021/07/08 11:16:39;;;;;;;9.48;5.40;;;;;;;39.77;20.94;100032.22;4418988;32;33443;-84
2021/07/08 11:19:09;;;;;;;7.50;5.10;;;;;;;39.58;20.51;100035.22;4405831;32;32707;-85
2021/07/08 11:21:56;;;;;;;8.38;5.78;;;;;;;39.98;19.94;100022.28;4414128;32;33115;-85
2021/07/08 11:24:39;;;;;;;10.27;6.57;;;;;;;40.01;21.79;100028.16;4405080;32;33858;-84
2021/07/08 11:27:09;;;;;;;10.95;5.40;;;;;;;40.39;20.38;100035.59;4393144;32;33648;-85
2021/07/08 11:29:44;;;;;;;8.90;5.55;;;;;;;40.19;20.10;100027.88;4392880;32;34411;-85
2021/07/08 11:32:29;;;;;;;9.77;5.50;;;;;;;40.10;19.74;100029.44;4389166;32;33136;-85
2021/07/08 11:35:00;;;;;;;7.07;4.95;;;;;;;40.24;19.27;100018.00;4411162;32;33109;-84
2021/07/08 11:37:51;;;;;;;10.63;5.12;;;;;;;39.89;20.07;100017.22;4408973;32;33021;-85
2021/07/08 11:40:18;;;;;;;8.02;5.78;;;;;;;39.65;20.03;100013.00;4385201;32;33629;-84